LFRS/NTE METAR and TAF weather

Enter ICAO airport designator
Station Type Date Time Source
LFRS METAR 2019/06/18 14:30 UTC NOAA

LFRS 181430Z AUTO 19010KT 160V230 CAVOK 30/15 Q1007 NOSIG


Station Type Date Time Source
LFRS Decoded METAR 2019/06/18 14:30 UTC NOAA

Nantes, France (LFRS) 47-10N 001-36W 27M
Jun 18, 2019 - 10:30 AM EDT / 2019.06.18 1430 UTC
Wind: from the S (190 degrees) at 12 MPH (10 KT) (direction variable):0
Visibility: greater than 7 mile(s):0
Temperature: 86 F (30 C)
Dew Point: 59 F (15 C)
Relative Humidity: 40%
Pressure (altimeter): 29.74 in. Hg (1007 hPa)
ob: LFRS 181430Z AUTO 19010KT 160V230 CAVOK 30/15 Q1007 NOSIG
cycle: 14

Station Type Date Time Source
LFRS TAF 2019/06/18 12:21 UTC NOAA

TAF LFRS 181100Z 1812/1918 17010KT CAVOK
BECMG 1818/1820 26007KT PROB30
TEMPO 1822/1824 BKN003 PROB30
TEMPO 1903/1906 -SHRA BKN010 SCT040TCU PROB30
TEMPO 1912/1918 24015G25KT 4000 SHRA BKN020 SCT040CB

Example: see airport list